Terminal Aerodrome Forecast
Issued by NWS Wichita, KS

Home | Current Version | Previous Version | Graphics & Text | Print | Product List | Glossary On
Versions: 1 2 3 4 5 6 7 8 9 10 11 12 13 14 15 16 17 18 19
000
FTUS43 KICT 252320
TAFICT
TAF
KICT 252320Z 2600/2624 35011KT P6SM BKN015
     FM260300 35006KT P6SM SCT025
     FM260800 VRB03KT P6SM FEW008
     FM260900 VRB03KT 3SM BR FEW003 SCT008
     FM261100 29004KT 1/2SM FG BKN003
     FM261300 27004KT 1SM BR SCT005
     FM261500 24005KT P6SM SCT250
     FM262000 32009KT P6SM BKN250=

USA.gov is the U.S. government's official web portal to all federal, state and local government web resources and services.